sensor_id;sensor_type;location;lat;lon;timestamp;pressure;altitude;pressure_sealevel;temperature;humidity
21449;BME280;10885;52.830;13.788;2023-01-10T06:01:42;100850.19;;;5.53;91.79
21449;BME280;10885;52.830;13.788;2023-01-10T06:07:03;100858.69;;;5.54;91.47
21449;BME280;10885;52.830;13.788;2023-01-10T06:12:24;100869.00;;;5.55;90.95
21449;BME280;10885;52.830;13.788;2023-01-10T06:17:45;100882.22;;;5.51;91.24
21449;BME280;10885;52.830;13.788;2023-01-10T06:23:06;100900.78;;;5.50;91.50
21449;BME280;10885;52.830;13.788;2023-01-10T06:28:27;100918.06;;;5.44;91.84
21449;BME280;10885;52.830;13.788;2023-01-10T06:33:49;100927.88;;;5.40;92.71
21449;BME280;10885;52.830;13.788;2023-01-10T06:39:10;100932.03;;;5.39;92.76
21449;BME280;10885;52.830;13.788;2023-01-10T06:44:31;100938.28;;;5.43;93.00
21449;BME280;10885;52.830;13.788;2023-01-10T06:49:52;100944.78;;;5.49;93.26
21449;BME280;10885;52.830;13.788;2023-01-10T06:55:13;100950.75;;;5.50;93.83
21449;BME280;10885;52.830;13.788;2023-01-10T07:00:34;100962.94;;;5.54;93.99
21449;BME280;10885;52.830;13.788;2023-01-10T07:05:59;100971.72;;;5.57;94.33
21449;BME280;10885;52.830;13.788;2023-01-10T07:11:20;100979.22;;;5.56;94.28
21449;BME280;10885;52.830;13.788;2023-01-10T07:16:41;100984.31;;;5.56;94.88
21449;BME280;10885;52.830;13.788;2023-01-10T07:22:02;101001.22;;;5.55;94.54
21449;BME280;10885;52.830;13.788;2023-01-10T07:27:23;101011.25;;;5.74;95.47
21449;BME280;10885;52.830;13.788;2023-01-10T07:32:44;101027.53;;;5.76;95.21
21449;BME280;10885;52.830;13.788;2023-01-10T07:38:05;101036.34;;;5.70;94.26
21449;BME280;10885;52.830;13.788;2023-01-10T07:43:25;101049.19;;;5.71;94.12
21449;BME280;10885;52.830;13.788;2023-01-10T07:48:46;101063.53;;;5.71;93.98
21449;BME280;10885;52.830;13.788;2023-01-10T07:54:08;101067.50;;;5.77;93.63
21449;BME280;10885;52.830;13.788;2023-01-10T07:59:29;101079.56;;;5.80;93.60
21449;BME280;10885;52.830;13.788;2023-01-10T08:04:50;101091.66;;;5.83;93.17
21449;BME280;10885;52.830;13.788;2023-01-10T08:10:11;101104.00;;;5.88;93.02
21449;BME280;10885;52.830;13.788;2023-01-10T08:15:32;101102.78;;;6.04;92.90
21449;BME280;10885;52.830;13.788;2023-01-10T08:20:54;101101.53;;;6.19;92.02
21449;BME280;10885;52.830;13.788;2023-01-10T08:26:15;101115.78;;;6.27;91.10
21449;BME280;10885;52.830;13.788;2023-01-10T08:31:36;101124.94;;;6.46;90.05
21449;BME280;10885;52.830;13.788;2023-01-10T08:36:56;101123.91;;;6.44;89.52
21449;BME280;10885;52.830;13.788;2023-01-10T08:42:17;101140.72;;;6.52;89.66
21449;BME280;10885;52.830;13.788;2023-01-10T08:47:38;101156.66;;;6.49;89.50
21449;BME280;10885;52.830;13.788;2023-01-10T08:52:59;101157.78;;;6.53;89.34
21449;BME280;10885;52.830;13.788;2023-01-10T08:58:20;101149.75;;;6.69;88.50
21449;BME280;10885;52.830;13.788;2023-01-10T09:03:41;101161.06;;;6.72;87.74
21449;BME280;10885;52.830;13.788;2023-01-10T09:09:03;101171.38;;;6.84;87.71
21449;BME280;10885;52.830;13.788;2023-01-10T09:14:24;101170.25;;;7.23;86.71
21449;BME280;10885;52.830;13.788;2023-01-10T09:19:45;101192.28;;;7.33;84.68
21449;BME280;10885;52.830;13.788;2023-01-10T09:25:06;101197.53;;;7.34;84.11
21449;BME280;10885;52.830;13.788;2023-01-10T09:30:28;101198.41;;;7.35;84.39
21449;BME280;10885;52.830;13.788;2023-01-10T09:35:49;101202.25;;;7.20;84.26
21449;BME280;10885;52.830;13.788;2023-01-10T09:47:29;101210.31;;;7.24;84.05
21449;BME280;10885;52.830;13.788;2023-01-10T09:53:11;101212.09;;;7.15;84.40
21449;BME280;10885;52.830;13.788;2023-01-10T09:58:34;101218.97;;;7.26;83.75
21449;BME280;10885;52.830;13.788;2023-01-10T10:09:28;101222.34;;;7.47;82.32
21449;BME280;10885;52.830;13.788;2023-01-10T10:20:51;101248.63;;;7.46;81.30
21449;BME280;10885;52.830;13.788;2023-01-10T10:26:55;101238.03;;;7.42;82.39
21449;BME280;10885;52.830;13.788;2023-01-10T10:32:21;101237.06;;;7.62;81.06
21449;BME280;10885;52.830;13.788;2023-01-10T10:37:49;101244.97;;;7.65;80.40
21449;BME280;10885;52.830;13.788;2023-01-10T10:43:22;101238.44;;;7.79;79.99
21449;BME280;10885;52.830;13.788;2023-01-10T10:48:58;101247.66;;;8.21;77.19
21449;BME280;10885;52.830;13.788;2023-01-10T10:54:19;101258.13;;;8.35;76.79
21449;BME280;10885;52.830;13.788;2023-01-10T10:59:43;101267.84;;;8.40;74.72
21449;BME280;10885;52.830;13.788;2023-01-10T11:05:13;101271.50;;;8.65;73.98
21449;BME280;10885;52.830;13.788;2023-01-10T11:10:36;101270.53;;;8.75;72.78
21449;BME280;10885;52.830;13.788;2023-01-10T11:16:05;101297.22;;;8.45;71.65
21449;BME280;10885;52.830;13.788;2023-01-10T11:21:27;101301.63;;;8.25;72.67
21449;BME280;10885;52.830;13.788;2023-01-10T11:26:48;101286.22;;;8.24;73.92
21449;BME280;10885;52.830;13.788;2023-01-10T11:32:12;101284.53;;;8.68;73.50
21449;BME280;10885;52.830;13.788;2023-01-10T11:37:35;101282.91;;;8.81;70.98
21449;BME280;10885;52.830;13.788;2023-01-10T11:42:56;101282.09;;;8.70;69.33
21449;BME280;10885;52.830;13.788;2023-01-10T11:48:24;101295.72;;;8.59;70.59
21449;BME280;10885;52.830;13.788;2023-01-10T11:54:14;101304.38;;;8.39;70.62
21449;BME280;10885;52.830;13.788;2023-01-10T11:59:37;101294.88;;;8.70;71.70
21449;BME280;10885;52.830;13.788;2023-01-10T12:05:02;101319.69;;;8.83;70.96
21449;BME280;10885;52.830;13.788;2023-01-10T12:10:27;101301.91;;;8.50;70.97
21449;BME280;10885;52.830;13.788;2023-01-10T12:15:48;101311.34;;;8.85;69.53
21449;BME280;10885;52.830;13.788;2023-01-10T12:21:12;101316.03;;;9.25;68.54
21449;BME280;10885;52.830;13.788;2023-01-10T12:26:34;101310.81;;;9.47;68.41
21449;BME280;10885;52.830;13.788;2023-01-10T12:31:57;101311.91;;;10.33;65.32
21449;BME280;10885;52.830;13.788;2023-01-10T12:37:29;101312.31;;;10.89;62.28
21449;BME280;10885;52.830;13.788;2023-01-10T12:42:55;101315.69;;;10.63;62.73
21449;BME280;10885;52.830;13.788;2023-01-10T12:48:46;101324.75;;;9.74;63.75
21449;BME280;10885;52.830;13.788;2023-01-10T12:54:15;101330.97;;;9.78;64.28
21449;BME280;10885;52.830;13.788;2023-01-10T12:59:40;101342.41;;;9.35;64.85
21449;BME280;10885;52.830;13.788;2023-01-10T13:05:03;101339.03;;;9.25;66.43
21449;BME280;10885;52.830;13.788;2023-01-10T13:10:26;101348.59;;;8.82;67.89
21449;BME280;10885;52.830;13.788;2023-01-10T13:15:53;101352.75;;;8.91;69.50
21449;BME280;10885;52.830;13.788;2023-01-10T13:21:17;101359.44;;;9.01;68.26
21449;BME280;10885;52.830;13.788;2023-01-10T13:26:56;101368.31;;;8.94;68.89
21449;BME280;10885;52.830;13.788;2023-01-10T13:32:24;101362.34;;;8.72;70.25
21449;BME280;10885;52.830;13.788;2023-01-10T13:37:52;101388.38;;;8.56;70.27
21449;BME280;10885;52.830;13.788;2023-01-10T13:49:38;101382.81;;;8.40;71.31
21449;BME280;10885;52.830;13.788;2023-01-10T13:55:19;101399.44;;;8.34;72.45
21449;BME280;10885;52.830;13.788;2023-01-10T14:00:44;101391.50;;;8.31;72.31
21449;BME280;10885;52.830;13.788;2023-01-10T14:12:00;101402.81;;;8.13;73.13
21449;BME280;10885;52.830;13.788;2023-01-10T14:17:30;101406.91;;;8.11;73.13
21449;BME280;10885;52.830;13.788;2023-01-10T14:23:15;101401.84;;;8.01;73.44
21449;BME280;10885;52.830;13.788;2023-01-10T14:28:39;101395.31;;;8.04;73.64
21449;BME280;10885;52.830;13.788;2023-01-10T14:34:00;101395.09;;;7.91;72.82
21449;BME280;10885;52.830;13.788;2023-01-10T14:39:23;101401.63;;;7.77;73.26
21449;BME280;10885;52.830;13.788;2023-01-10T14:44:58;101398.09;;;7.54;73.79
21449;BME280;10885;52.830;13.788;2023-01-10T14:50:26;101393.63;;;7.31;74.70
21449;BME280;10885;52.830;13.788;2023-01-10T14:55:48;101390.19;;;7.10;75.49
21449;BME280;10885;52.830;13.788;2023-01-10T15:01:09;101394.88;;;7.06;75.57
21449;BME280;10885;52.830;13.788;2023-01-10T15:06:52;101399.38;;;7.08;75.65
21449;BME280;10885;52.830;13.788;2023-01-10T15:12:14;101399.59;;;7.01;76.36
21449;BME280;10885;52.830;13.788;2023-01-10T15:17:36;101405.06;;;6.95;76.34
21449;BME280;10885;52.830;13.788;2023-01-10T15:22:59;101403.53;;;6.87;76.99
21449;BME280;10885;52.830;13.788;2023-01-10T15:28:21;101411.53;;;6.82;77.23
21449;BME280;10885;52.830;13.788;2023-01-10T15:33:44;101421.50;;;6.79;77.59
21449;BME280;10885;52.830;13.788;2023-01-10T15:39:14;101417.50;;;6.72;77.19
21449;BME280;10885;52.830;13.788;2023-01-10T15:44:39;101409.72;;;6.70;77.40
21449;BME280;10885;52.830;13.788;2023-01-10T15:50:01;101416.91;;;6.74;77.96
21449;BME280;10885;52.830;13.788;2023-01-10T15:55:40;101422.47;;;6.70;78.33
21449;BME280;10885;52.830;13.788;2023-01-10T16:01:03;101421.44;;;6.68;78.62
21449;BME280;10885;52.830;13.788;2023-01-10T16:11:50;101415.53;;;6.49;78.83
21449;BME280;10885;52.830;13.788;2023-01-10T16:17:29;101408.88;;;6.41;78.97
21449;BME280;10885;52.830;13.788;2023-01-10T16:22:51;101412.78;;;6.27;79.52
21449;BME280;10885;52.830;13.788;2023-01-10T16:28:15;101415.97;;;6.05;80.46
21449;BME280;10885;52.830;13.788;2023-01-10T16:33:36;101428.16;;;5.90;81.19
21449;BME280;10885;52.830;13.788;2023-01-10T16:38:57;101423.31;;;5.83;81.46
21449;BME280;10885;52.830;13.788;2023-01-10T16:44:19;101413.72;;;5.81;82.19
21449;BME280;10885;52.830;13.788;2023-01-10T16:49:40;101419.94;;;5.74;82.39
21449;BME280;10885;52.830;13.788;2023-01-10T16:55:01;101418.13;;;5.73;82.72
21449;BME280;10885;52.830;13.788;2023-01-10T17:00:22;101420.66;;;5.73;82.72
21449;BME280;10885;52.830;13.788;2023-01-10T17:05:43;101411.91;;;5.69;82.85
21449;BME280;10885;52.830;13.788;2023-01-10T17:11:07;101417.25;;;5.72;82.76
21449;BME280;10885;52.830;13.788;2023-01-10T17:16:30;101405.00;;;5.68;82.44
21449;BME280;10885;52.830;13.788;2023-01-10T17:21:52;101399.28;;;5.71;83.04
21449;BME280;10885;52.830;13.788;2023-01-10T17:27:13;101406.25;;;5.82;83.02
21449;BME280;10885;52.830;13.788;2023-01-10T17:32:34;101416.22;;;5.89;82.15
21449;BME280;10885;52.830;13.788;2023-01-10T17:37:54;101411.72;;;5.87;81.95
21449;BME280;10885;52.830;13.788;2023-01-10T17:43:17;101414.66;;;5.81;81.46
21449;BME280;10885;52.830;13.788;2023-01-10T17:48:39;101417.69;;;5.77;81.30
21449;BME280;10885;52.830;13.788;2023-01-10T17:53:59;101416.66;;;5.75;81.41
21449;BME280;10885;52.830;13.788;2023-01-10T17:59:21;101424.47;;;5.68;81.47
21449;BME280;10885;52.830;13.788;2023-01-10T18:04:43;101412.16;;;5.72;81.10
21449;BME280;10885;52.830;13.788;2023-01-10T18:10:04;101418.72;;;5.79;80.87
21449;BME280;10885;52.830;13.788;2023-01-10T18:15:28;101418.41;;;5.76;80.33
21449;BME280;10885;52.830;13.788;2023-01-10T18:20:49;101410.16;;;5.78;80.73
21449;BME280;10885;52.830;13.788;2023-01-10T18:26:12;101407.50;;;5.77;80.30
21449;BME280;10885;52.830;13.788;2023-01-10T18:31:33;101410.56;;;5.64;80.50
21449;BME280;10885;52.830;13.788;2023-01-10T18:36:54;101410.03;;;5.58;81.28
21449;BME280;10885;52.830;13.788;2023-01-10T18:42:15;101406.78;;;5.50;80.81
21449;BME280;10885;52.830;13.788;2023-01-10T18:47:36;101407.94;;;5.35;81.60
21449;BME280;10885;52.830;13.788;2023-01-10T18:52:58;101393.94;;;5.21;81.99
21449;BME280;10885;52.830;13.788;2023-01-10T18:58:22;101389.09;;;5.14;82.53
21449;BME280;10885;52.830;13.788;2023-01-10T19:03:44;101389.72;;;5.03;82.45
21449;BME280;10885;52.830;13.788;2023-01-10T19:09:05;101392.31;;;4.94;83.76
21449;BME280;10885;52.830;13.788;2023-01-10T19:14:25;101391.47;;;4.85;82.90
21449;BME280;10885;52.830;13.788;2023-01-10T19:19:47;101377.31;;;4.78;84.04
21449;BME280;10885;52.830;13.788;2023-01-10T19:25:08;101378.72;;;4.66;83.71
21449;BME280;10885;52.830;13.788;2023-01-10T19:30:30;101381.25;;;4.57;84.45
21449;BME280;10885;52.830;13.788;2023-01-10T19:35:50;101368.19;;;4.44;85.00
21449;BME280;10885;52.830;13.788;2023-01-10T19:41:12;101366.69;;;4.37;85.78
21449;BME280;10885;52.830;13.788;2023-01-10T19:46:36;101360.78;;;4.28;85.36
21449;BME280;10885;52.830;13.788;2023-01-10T19:51:59;101364.19;;;4.19;85.83
21449;BME280;10885;52.830;13.788;2023-01-10T19:57:19;101356.31;;;4.16;85.47
21449;BME280;10885;52.830;13.788;2023-01-10T20:02:40;101346.78;;;4.14;85.99
21449;BME280;10885;52.830;13.788;2023-01-10T20:08:01;101351.53;;;4.11;86.18
21449;BME280;10885;52.830;13.788;2023-01-10T20:13:24;101340.97;;;4.06;86.50
21449;BME280;10885;52.830;13.788;2023-01-10T20:18:46;101340.66;;;4.03;85.88
21449;BME280;10885;52.830;13.788;2023-01-10T20:24:12;101336.81;;;3.98;86.63
21449;BME280;10885;52.830;13.788;2023-01-10T20:29:34;101332.03;;;3.92;86.96
21449;BME280;10885;52.830;13.788;2023-01-10T20:34:56;101325.00;;;3.90;86.14
21449;BME280;10885;52.830;13.788;2023-01-10T20:40:17;101317.59;;;3.83;86.61
21449;BME280;10885;52.830;13.788;2023-01-10T20:45:38;101310.28;;;3.77;86.55
21449;BME280;10885;52.830;13.788;2023-01-10T20:50:59;101306.13;;;3.69;86.96
21449;BME280;10885;52.830;13.788;2023-01-10T20:56:23;101308.66;;;3.69;86.70
21449;BME280;10885;52.830;13.788;2023-01-10T21:01:44;101306.56;;;3.65;86.92
21449;BME280;10885;52.830;13.788;2023-01-10T21:07:05;101312.66;;;3.58;86.91
21449;BME280;10885;52.830;13.788;2023-01-10T21:12:26;101309.84;;;3.55;87.04
21449;BME280;10885;52.830;13.788;2023-01-10T21:17:48;101313.72;;;3.51;86.81
21449;BME280;10885;52.830;13.788;2023-01-10T21:23:09;101294.06;;;3.49;87.05
21449;BME280;10885;52.830;13.788;2023-01-10T21:28:35;101297.91;;;3.45;86.90
21449;BME280;10885;52.830;13.788;2023-01-10T21:33:58;101283.31;;;3.43;87.31
21449;BME280;10885;52.830;13.788;2023-01-10T21:39:19;101279.44;;;3.37;86.87
21449;BME280;10885;52.830;13.788;2023-01-10T21:44:40;101280.03;;;3.35;87.20
21449;BME280;10885;52.830;13.788;2023-01-10T21:50:06;101276.63;;;3.34;87.01
21449;BME280;10885;52.830;13.788;2023-01-10T21:55:27;101266.03;;;3.38;86.50
21449;BME280;10885;52.830;13.788;2023-01-10T22:00:53;101265.28;;;3.39;86.25
21449;BME280;10885;52.830;13.788;2023-01-10T22:06:15;101247.38;;;3.38;85.23
21449;BME280;10885;52.830;13.788;2023-01-10T22:11:36;101238.28;;;3.40;85.60
21449;BME280;10885;52.830;13.788;2023-01-10T22:16:56;101238.88;;;3.37;84.49
21449;BME280;10885;52.830;13.788;2023-01-10T22:22:17;101231.91;;;3.35;84.81
21449;BME280;10885;52.830;13.788;2023-01-10T22:27:38;101230.84;;;3.33;84.42
21449;BME280;10885;52.830;13.788;2023-01-10T22:32:59;101217.16;;;3.31;84.85
21449;BME280;10885;52.830;13.788;2023-01-10T22:38:20;101215.50;;;3.31;84.16
21449;BME280;10885;52.830;13.788;2023-01-10T22:43:42;101209.69;;;3.32;84.16
